CSCL Saturn — VRJS5 — position and weather

sailwx.info

Track history (hours):
 
Tides and Currents Weather Stations Pressure Air Temp Water Temp Dewpoint Dewpoint Depression Visibility Wind Speed Wind Dir Waves Ship Positions

CSCL Saturn

Last reported at 2018-Jul-15 12:28 UTC. Time now 2018-Jul-16 04:51 UTC.
Position N 24°26' E 118°53'.

Length 366 m; draft 13.9 m.

Type: Ship (hazmat cat B). MMSI: 477274400.

Date/timePositionNaut miles runAvg speedWind from/ knotsBaromVisibWave heightAir tempDewpointWater temp
2018-Jul-15 12:28N 24°26' E 118°53'816.1
2018-Jul-15 12:00N 24°21' E 118°46'1116.1
2018-Jul-15 11:20N 24°15' E 118°36'515.9
2018-Jul-15 11:00N 24°11' E 118°32'815.8
2018-Jul-15 10:30N 24°06' E 118°25'917.1
2018-Jul-15 10:00N 24°00' E 118°19'918.0
2018-Jul-15 09:30N 23°54' E 118°12'917.4
2018-Jul-15 09:00N 23°48' E 118°05'917.5
2018-Jul-15 08:29N 23°42' E 117°57'917.6
2018-Jul-15 08:00N 23°36' E 117°50'917.6
2018-Jul-15 07:30N 23°31' E 117°43'917.2
2018-Jul-15 07:00N 23°24' E 117°37'816.8
2018-Jul-15 06:30N 23°18' E 117°30'  
2018-Jul-11 13:54N 01°30' E 104°34'718.2
2018-Jul-11 13:29N 01°26' E 104°29'816.9
2018-Jul-11 12:59N 01°20' E 104°22'815.9
2018-Jul-11 12:30N 01°17' E 104°16'816.3
2018-Jul-11 11:59N 01°15' E 104°07'816.1
2018-Jul-11 11:31N 01°14' E 103°60'815.4
2018-Jul-11 11:01N 01°12' E 103°52'815.3
2018-Jul-11 10:30N 01°08' E 103°46'815.2
2018-Jul-11 10:00N 01°04' E 103°39'816.1
2018-Jul-11 09:30N 01°07' E 103°32'815.4
2018-Jul-11 09:00N 01°11' E 103°25'816.4
2018-Jul-11 08:30N 01°16' E 103°19'816.3
2018-Jul-11 08:00N 01°21' E 103°13'816.1
2018-Jul-11 07:29N 01°26' E 103°06'  
Track history (hours):
 
Tides and Currents Weather Stations Pressure Air Temp Water Temp Dewpoint Dewpoint Depression Visibility Wind Speed Wind Dir Waves Ship Positions

CSCL Saturn

Last reported at 2018-Jul-15 12:28 UTC. Time now 2018-Jul-16 04:51 UTC.
Position N 24°26' E 118°53'.

Length 366 m; draft 13.9 m.

Type: Ship (hazmat cat B). MMSI: 477274400.

Date/timePositionNaut miles runAvg speedWind from/ knotsBaromVisibWave heightAir tempDewpointWater temp
2018-Jul-15 12:28N 24°26' E 118°53'816.1
2018-Jul-15 12:00N 24°21' E 118°46'1116.1
2018-Jul-15 11:20N 24°15' E 118°36'515.9
2018-Jul-15 11:00N 24°11' E 118°32'815.8
2018-Jul-15 10:30N 24°06' E 118°25'917.1
2018-Jul-15 10:00N 24°00' E 118°19'918.0
2018-Jul-15 09:30N 23°54' E 118°12'917.4
2018-Jul-15 09:00N 23°48' E 118°05'917.5
2018-Jul-15 08:29N 23°42' E 117°57'917.6
2018-Jul-15 08:00N 23°36' E 117°50'917.6
2018-Jul-15 07:30N 23°31' E 117°43'917.2
2018-Jul-15 07:00N 23°24' E 117°37'816.8
2018-Jul-15 06:30N 23°18' E 117°30'  
2018-Jul-11 13:54N 01°30' E 104°34'718.2
2018-Jul-11 13:29N 01°26' E 104°29'816.9
2018-Jul-11 12:59N 01°20' E 104°22'815.9
2018-Jul-11 12:30N 01°17' E 104°16'816.3
2018-Jul-11 11:59N 01°15' E 104°07'816.1
2018-Jul-11 11:31N 01°14' E 103°60'815.4
2018-Jul-11 11:01N 01°12' E 103°52'815.3
2018-Jul-11 10:30N 01°08' E 103°46'815.2
2018-Jul-11 10:00N 01°04' E 103°39'816.1
2018-Jul-11 09:30N 01°07' E 103°32'815.4
2018-Jul-11 09:00N 01°11' E 103°25'816.4
2018-Jul-11 08:30N 01°16' E 103°19'816.3
2018-Jul-11 08:00N 01°21' E 103°13'816.1
2018-Jul-11 07:29N 01°26' E 103°06'  

Dump ship's entire track history